Time;durP1;ratioP1;P1;durP2;ratioP2;P2;SDS_P1;SDS_P2;PMS_P1;PMS_P2;Temp;Humidity;BMP_temperature;BMP_pressure;BME280_temperature;BME280_humidity;BME280_pressure;Samples;Min_cycle;Max_cycle;Signal;HPM_P1;HPM_P2
2020/12/01 00:02:00;;;;;;;4.50;4.10;;;;;;;3.52;85.19;101544.00;6344411;28;20219;-77
2020/12/01 00:05:06;;;;;;;4.20;4.00;;;;;;;3.40;85.65;101547.94;6338034;27;20205;-78
2020/12/01 00:08:11;;;;;;;3.77;3.67;;;;;;;3.56;85.55;101548.09;6337762;28;20205;-78
2020/12/01 00:11:16;;;;;;;4.00;3.90;;;;;;;3.30;85.48;101544.47;6311005;28;20539;-79
2020/12/01 00:14:19;;;;;;;4.33;4.03;;;;;;;3.57;85.70;101549.78;6333005;28;20186;-79
2020/12/01 00:17:23;;;;;;;4.53;4.20;;;;;;;3.40;84.43;101534.44;6339135;27;20507;-79
2020/12/01 00:20:27;;;;;;;3.40;3.30;;;;;;;3.46;84.80;101525.75;6343180;28;20280;-79
2020/12/01 00:23:30;;;;;;;4.00;3.90;;;;;;;3.69;84.08;101540.47;6341141;28;20190;-78
2020/12/01 00:26:33;;;;;;;4.00;3.90;;;;;;;3.71;83.78;101546.53;6318106;28;20312;-79
2020/12/01 00:29:36;;;;;;;4.60;3.73;;;;;;;3.69;84.36;101535.06;6319787;28;20194;-78
2020/12/01 00:32:41;;;;;;;3.87;3.67;;;;;;;3.33;83.58;101481.28;6331675;28;20540;-78
2020/12/01 00:35:45;;;;;;;4.10;3.90;;;;;;;3.64;83.71;101540.09;6327617;28;20735;-78
2020/12/01 00:38:48;;;;;;;4.10;3.90;;;;;;;3.63;84.32;101553.72;6333273;28;20189;-78
2020/12/01 00:41:53;;;;;;;3.57;3.47;;;;;;;3.63;83.65;101554.56;6305419;28;20221;-79
2020/12/01 00:44:56;;;;;;;3.83;3.73;;;;;;;3.36;83.86;101508.78;6325912;28;20195;-78
2020/12/01 00:48:00;;;;;;;4.27;3.77;;;;;;;3.77;83.70;101556.69;6327754;28;20572;-79
2020/12/01 00:51:03;;;;;;;3.50;3.40;;;;;;;3.60;84.32;101554.00;6325806;28;20200;-78
2020/12/01 00:54:09;;;;;;;3.77;3.57;;;;;;;3.53;84.34;101543.00;6329496;27;20254;-78
2020/12/01 00:57:13;;;;;;;3.40;3.30;;;;;;;3.64;83.57;101556.28;6308256;28;20280;-78
2020/12/01 01:00:20;;;;;;;3.57;3.37;;;;;;;3.48;83.61;101523.72;6324871;27;20755;-78
2020/12/01 01:03:50;;;;;;;3.63;3.50;;;;;;;3.60;83.25;101538.69;6312810;28;20680;-78
2020/12/01 01:06:53;;;;;;;3.80;3.60;;;;;;;3.68;84.06;101554.94;6329730;27;20315;-78
2020/12/01 01:09:56;;;;;;;3.23;3.13;;;;;;;3.53;84.44;101567.28;6330719;28;20179;-78
2020/12/01 01:13:01;;;;;;;3.43;3.33;;;;;;;3.57;83.70;101560.56;6319520;28;20197;-78
2020/12/01 01:16:06;;;;;;;3.60;3.50;;;;;;;3.42;83.99;101556.72;6337074;28;20207;-78
2020/12/01 01:19:13;;;;;;;3.53;3.33;;;;;;;3.55;83.86;101562.59;6328863;28;20182;-79
2020/12/01 01:22:16;;;;;;;3.07;2.97;;;;;;;3.63;83.53;101570.75;6327682;28;20197;-78
2020/12/01 01:25:20;;;;;;;3.07;2.97;;;;;;;3.62;83.71;101579.84;6321788;28;20194;-78
2020/12/01 01:28:23;;;;;;;3.80;3.60;;;;;;;3.47;84.08;101565.19;6338157;28;20570;-79
2020/12/01 01:31:27;;;;;;;3.57;3.47;;;;;;;3.51;84.58;101580.09;6335095;28;20702;-78
2020/12/01 01:34:31;;;;;;;3.50;3.40;;;;;;;3.68;82.87;101584.63;6314379;28;20212;-79
2020/12/01 01:37:34;;;;;;;3.40;3.30;;;;;;;3.51;83.34;101582.78;6328206;27;20777;-80
2020/12/01 01:40:38;;;;;;;3.53;3.33;;;;;;;3.55;83.88;101584.16;6319911;28;20701;-78
2020/12/01 01:43:42;;;;;;;3.90;3.80;;;;;;;3.51;83.90;101588.19;6324715;27;20572;-78
2020/12/01 01:46:49;;;;;;;3.50;3.40;;;;;;;3.62;83.44;101606.81;6345704;27;20241;-78
2020/12/01 01:49:59;;;;;;;3.03;2.93;;;;;;;3.60;83.12;101598.03;6326311;28;20297;-78
2020/12/01 01:53:02;;;;;;;3.20;3.10;;;;;;;3.52;83.81;101589.88;6318119;28;20193;-78
2020/12/01 01:56:10;;;;;;;3.27;3.17;;;;;;;3.69;81.96;101599.84;6319467;27;20273;-77
2020/12/01 01:59:14;;;;;;;3.17;2.97;;;;;;;3.71;83.13;101600.53;6323570;28;20402;-79
2020/12/01 02:02:17;;;;;;;3.40;3.20;;;;;;;3.73;82.23;101603.91;6302809;28;20198;-80
2020/12/01 02:05:21;;;;;;;3.07;2.97;;;;;;;3.71;82.61;101616.72;6323449;28;20186;-79
2020/12/01 02:08:26;;;;;;;2.93;2.90;;;;;;;3.71;82.51;101608.63;6322898;28;20208;-79
2020/12/01 02:11:32;;;;;;;2.83;2.83;;;;;;;3.34;83.36;101602.47;6303479;28;20195;-79
2020/12/01 02:14:37;;;;;;;3.07;2.97;;;;;;;3.62;82.42;101628.41;6286037;28;20208;-78
2020/12/01 02:17:40;;;;;;;3.37;3.07;;;;;;;3.62;82.73;101614.91;6284356;28;20248;-79
2020/12/01 02:20:44;;;;;;;3.10;3.00;;;;;;;3.70;82.66;101623.09;6306458;28;20208;-79
2020/12/01 02:23:48;;;;;;;3.03;2.83;;;;;;;3.67;82.08;101620.72;6319730;28;20338;-79
2020/12/01 02:26:54;;;;;;;3.00;2.90;;;;;;;3.74;81.94;101621.81;6289595;28;20748;-78
2020/12/01 02:29:59;;;;;;;3.30;3.20;;;;;;;3.52;82.84;101616.84;6300617;28;20194;-79
2020/12/01 02:33:04;;;;;;;3.20;3.10;;;;;;;3.38;83.54;101620.06;6299142;28;20195;-79
2020/12/01 02:36:08;;;;;;;3.27;3.17;;;;;;;3.50;82.89;101645.84;6290302;28;20206;-78
2020/12/01 02:39:12;;;;;;;3.27;3.17;;;;;;;3.49;82.64;101637.91;6316221;28;20230;-79
2020/12/01 02:42:22;;;;;;;3.10;2.90;;;;;;;3.59;82.94;101623.34;6321071;28;20632;-78
2020/12/01 02:45:25;;;;;;;3.07;2.97;;;;;;;3.40;82.23;101585.69;6301332;28;20565;-78
2020/12/01 02:48:29;;;;;;;2.70;2.60;;;;;;;3.38;83.39;101633.56;6310564;28;20250;-79
2020/12/01 02:51:34;;;;;;;3.07;2.97;;;;;;;3.45;82.56;101637.34;6290250;28;20354;-78
2020/12/01 02:54:37;;;;;;;2.70;2.50;;;;;;;3.28;83.24;101640.88;6310727;28;20236;-78
2020/12/01 02:57:41;;;;;;;2.93;2.73;;;;;;;3.29;82.95;101625.53;6309337;28;20653;-78
2020/12/01 03:00:45;;;;;;;2.60;2.50;;;;;;;3.35;82.09;101639.25;6322545;28;20315;-79
2020/12/01 03:03:49;;;;;;;2.70;2.50;;;;;;;3.51;82.24;101652.09;6317405;28;20221;-78
2020/12/01 03:06:52;;;;;;;2.60;2.60;;;;;;;3.52;82.40;101643.81;6327634;28;20279;-78
2020/12/01 03:09:55;;;;;;;2.80;2.67;;;;;;;3.48;82.57;101642.44;6322957;28;20208;-79
2020/12/01 03:12:59;;;;;;;2.90;2.80;;;;;;;3.53;81.54;101644.69;6326151;28;20606;-78
2020/12/01 03:16:07;;;;;;;2.53;2.53;;;;;;;3.32;81.74;101620.66;6336638;28;20196;-79
2020/12/01 03:19:11;;;;;;;2.67;2.57;;;;;;;3.58;81.62;101664.81;6320832;28;20246;-78
2020/12/01 03:22:14;;;;;;;2.53;2.53;;;;;;;3.55;80.77;101675.91;6335373;28;21395;-79
2020/12/01 03:25:18;;;;;;;2.13;2.13;;;;;;;3.52;81.49;101665.41;6317689;28;20619;-78
2020/12/01 03:28:22;;;;;;;2.60;2.50;;;;;;;3.67;79.84;101671.16;6299860;28;20217;-78
2020/12/01 03:31:25;;;;;;;2.20;2.10;;;;;;;3.68;80.05;101684.50;6321725;28;20192;-79
2020/12/01 03:34:28;;;;;;;2.33;2.23;;;;;;;3.69;78.97;101672.72;6319043;28;20285;-79
2020/12/01 03:37:32;;;;;;;2.27;2.27;;;;;;;3.59;79.51;101682.72;6333607;28;21030;-78
2020/12/01 03:40:35;;;;;;;2.40;2.30;;;;;;;3.55;79.60;101686.69;6332004;28;20196;-78
2020/12/01 03:43:40;;;;;;;2.20;2.10;;;;;;;3.60;79.98;101695.19;6322080;28;20205;-78
2020/12/01 03:46:43;;;;;;;3.10;2.13;;;;;;;3.70;79.76;101695.97;6325228;28;20699;-79
2020/12/01 03:49:47;;;;;;;2.60;2.40;;;;;;;3.64;79.87;101695.75;6302862;28;20309;-79
2020/12/01 03:52:50;;;;;;;3.00;2.17;;;;;;;3.55;80.11;101692.09;6340173;28;20187;-79
2020/12/01 03:55:53;;;;;;;3.20;2.53;;;;;;;3.53;79.59;101688.72;6338666;28;20238;-79
2020/12/01 03:58:58;;;;;;;2.40;2.40;;;;;;;3.56;79.82;101695.66;6322456;28;20220;-78
2020/12/01 04:02:02;;;;;;;2.73;2.73;;;;;;;3.35;79.66;101663.53;6300094;28;20198;-78
2020/12/01 04:05:08;;;;;;;2.83;2.73;;;;;;;3.36;80.95;101697.63;6337162;27;20675;-78
2020/12/01 04:08:13;;;;;;;3.00;2.80;;;;;;;3.46;80.74;101698.41;6346363;27;20219;-78
2020/12/01 04:11:17;;;;;;;2.63;2.53;;;;;;;3.41;80.61;101711.50;6331887;27;20559;-79
2020/12/01 04:14:21;;;;;;;2.23;2.23;;;;;;;3.48;80.91;101701.81;6345007;27;20219;-77
2020/12/01 04:17:24;;;;;;;2.83;2.60;;;;;;;3.33;80.80;101684.41;6331648;28;20193;-78
2020/12/01 04:20:27;;;;;;;2.80;2.60;;;;;;;3.33;80.82;101692.50;6328036;28;20187;-77
2020/12/01 04:23:31;;;;;;;2.57;2.47;;;;;;;3.40;79.82;101709.78;6326627;28;20274;-80
2020/12/01 04:26:34;;;;;;;3.50;2.67;;;;;;;3.47;80.35;101713.56;6334383;28;20204;-77
2020/12/01 04:29:38;;;;;;;2.87;2.63;;;;;;;3.38;80.88;101687.50;6344176;27;20293;-77
2020/12/01 04:32:42;;;;;;;2.80;2.60;;;;;;;3.55;80.13;101719.06;6336489;28;20321;-79
2020/12/01 04:35:45;;;;;;;4.70;2.70;;;;;;;3.47;80.70;101721.66;6334295;28;22585;-78
2020/12/01 04:38:49;;;;;;;2.47;2.40;;;;;;;3.41;81.01;101711.50;6346280;28;20613;-80
2020/12/01 04:41:53;;;;;;;7.23;2.83;;;;;;;3.43;80.08;101714.88;6335478;27;20200;-78
2020/12/01 04:45:04;;;;;;;3.07;2.87;;;;;;;3.51;80.47;101723.09;6339594;28;20190;-78
2020/12/01 04:48:14;;;;;;;2.87;2.77;;;;;;;3.42;80.28;101718.56;6364109;27;20221;-80
2020/12/01 04:51:35;;;;;;;4.50;2.50;;;;;;;3.34;80.75;101704.16;6342776;27;20216;-79
2020/12/01 04:55:25;;;;;;;2.53;2.43;;;;;;;3.48;80.09;101712.59;6334753;28;20201;-79
2020/12/01 04:58:43;;;;;;;3.07;2.87;;;;;;;3.43;80.38;101724.81;6313680;28;20246;-79
2020/12/01 05:02:26;;;;;;;2.93;2.73;;;;;;;3.34;80.60;101709.56;6322610;28;20257;-79
2020/12/01 05:05:49;;;;;;;2.60;2.50;;;;;;;3.31;80.94;101721.50;6328298;28;20255;-78
2020/12/01 05:08:58;;;;;;;2.13;2.13;;;;;;;3.50;80.74;101731.31;6313684;28;20210;-78
2020/12/01 05:12:04;;;;;;;2.73;2.63;;;;;;;3.02;80.76;101704.56;6309210;28;20192;-79
2020/12/01 05:15:17;;;;;;;3.43;3.27;;;;;;;3.40;81.16;101747.56;6327094;28;20470;-79
2020/12/01 05:18:23;;;;;;;2.93;2.83;;;;;;;3.23;80.19;101697.09;6330078;28;20291;-79
2020/12/01 05:21:27;;;;;;;2.83;2.70;;;;;;;3.45;80.36;101750.66;6318302;28;20196;-79
2020/12/01 05:24:44;;;;;;;4.17;2.53;;;;;;;3.52;80.12;101767.94;6331091;28;20612;-79
2020/12/01 05:27:47;;;;;;;3.70;3.23;;;;;;;3.38;80.21;101752.25;6324482;28;20579;-79
2020/12/01 05:30:59;;;;;;;3.70;2.90;;;;;;;3.40;79.98;101752.94;6315713;28;20258;-79
2020/12/01 05:34:17;;;;;;;3.43;3.13;;;;;;;3.53;80.10;101774.19;6318478;28;20655;-78
2020/12/01 05:37:20;;;;;;;3.07;2.90;;;;;;;3.51;80.42;101777.06;6317871;28;20194;-79
2020/12/01 05:40:26;;;;;;;2.70;2.57;;;;;;;3.50;80.51;101769.09;6289170;28;20233;-79
2020/12/01 05:43:36;;;;;;;2.70;2.60;;;;;;;3.50;80.31;101764.56;6288231;28;20202;-79
2020/12/01 05:46:45;;;;;;;2.80;2.70;;;;;;;3.50;80.29;101783.44;6317138;28;20325;-79
2020/12/01 05:49:52;;;;;;;3.00;2.80;;;;;;;3.56;80.39;101784.69;6307229;28;20243;-78
2020/12/01 05:53:04;;;;;;;3.30;2.80;;;;;;;3.50;80.06;101764.56;6315843;28;20190;-79
2020/12/01 05:56:16;;;;;;;2.80;2.70;;;;;;;3.37;79.94;101763.19;6313745;28;20216;-78
2020/12/01 05:59:22;;;;;;;2.80;2.60;;;;;;;3.48;80.62;101793.53;6321264;28;20322;-77
2020/12/01 06:02:35;;;;;;;5.80;3.30;;;;;;;3.55;80.11;101816.22;6326009;28;20207;-80
2020/12/01 06:05:42;;;;;;;5.10;2.90;;;;;;;3.45;80.33;101812.72;6309250;28;20249;-79
2020/12/01 06:08:54;;;;;;;2.83;2.73;;;;;;;3.58;80.28;101832.13;6335663;28;20223;-79
2020/12/01 06:12:04;;;;;;;3.43;2.70;;;;;;;3.51;80.22;101828.31;6321274;28;20259;-78
2020/12/01 06:15:15;;;;;;;5.77;3.20;;;;;;;3.46;80.24;101827.91;6329869;28;20278;-78
2020/12/01 06:18:28;;;;;;;2.77;2.77;;;;;;;3.32;79.83;101836.47;6328049;28;20284;-78
2020/12/01 06:22:06;;;;;;;3.00;2.87;;;;;;;3.40;80.34;101841.97;6323914;28;20220;-78
2020/12/01 06:25:28;;;;;;;3.93;3.27;;;;;;;3.43;80.69;101833.59;6304174;28;20192;-78
2020/12/01 06:29:04;;;;;;;5.00;2.73;;;;;;;3.61;80.18;101831.81;6314523;28;20216;-78
2020/12/01 06:32:33;;;;;;;3.10;2.83;;;;;;;3.45;79.90;101820.81;6325404;28;20217;-78
2020/12/01 06:35:51;;;;;;;4.20;3.23;;;;;;;3.48;80.00;101835.84;6325015;28;20196;-78
2020/12/01 06:39:10;;;;;;;5.80;3.20;;;;;;;3.53;80.13;101839.81;6333120;28;20205;-79
2020/12/01 06:42:20;;;;;;;5.60;3.73;;;;;;;3.49;79.38;101835.69;6325134;28;20202;-80
2020/12/01 06:45:28;;;;;;;6.23;3.80;;;;;;;3.31;80.47;101850.97;6317798;28;20209;-81
2020/12/01 06:48:41;;;;;;;3.87;3.50;;;;;;;3.40;79.80;101866.25;6339719;28;20727;-80
2020/12/01 06:51:48;;;;;;;3.23;3.13;;;;;;;2.95;80.51;101817.50;6357865;27;20695;-79
2020/12/01 06:54:53;;;;;;;3.80;3.60;;;;;;;3.32;81.08;101879.63;6338622;28;20597;-80
2020/12/01 06:58:07;;;;;;;3.40;3.10;;;;;;;3.44;80.45;101883.84;6345645;28;20293;-81
2020/12/01 07:01:28;;;;;;;4.07;3.77;;;;;;;3.55;80.51;101874.72;6340790;28;20673;-82
2020/12/01 07:04:31;;;;;;;3.50;3.30;;;;;;;3.46;80.23;101881.88;6341337;28;20782;-81
2020/12/01 07:07:37;;;;;;;4.33;3.50;;;;;;;3.42;80.60;101890.38;6342090;28;20197;-81
2020/12/01 07:10:41;;;;;;;3.17;2.97;;;;;;;3.54;80.33;101900.03;6350305;28;20307;-81
2020/12/01 07:13:49;;;;;;;3.70;3.50;;;;;;;3.45;80.92;101911.69;6344526;28;20214;-80
2020/12/01 07:16:53;;;;;;;3.60;3.30;;;;;;;3.41;79.80;101884.16;6350598;28;20250;-77
2020/12/01 07:19:58;;;;;;;3.53;3.27;;;;;;;3.52;80.65;101900.16;6321395;28;20334;-78
2020/12/01 07:23:23;;;;;;;3.47;3.27;;;;;;;3.59;80.84;101917.50;6327803;28;20199;-79
2020/12/01 07:26:37;;;;;;;5.10;3.03;;;;;;;3.48;80.56;101923.03;6330719;28;20221;-80
2020/12/01 07:30:06;;;;;;;5.73;3.27;;;;;;;3.49;80.68;101924.72;6339127;28;20208;-79
2020/12/01 07:33:20;;;;;;;3.60;3.30;;;;;;;3.38;81.26;101916.81;6332889;28;20202;-79
2020/12/01 07:36:35;;;;;;;3.40;3.20;;;;;;;3.49;81.34;101924.72;6317824;28;20285;-79
2020/12/01 07:39:52;;;;;;;4.30;3.10;;;;;;;3.42;81.16;101907.41;6331401;28;20216;-80
2020/12/01 07:43:02;;;;;;;3.20;3.00;;;;;;;3.32;81.04;101863.44;6340173;28;20201;-80
2020/12/01 07:46:06;;;;;;;10.87;6.23;;;;;;;3.76;80.19;101959.91;6353847;27;20194;-80
2020/12/01 07:49:10;;;;;;;4.73;3.53;;;;;;;3.64;81.05;101955.69;6317199;28;20280;-80
2020/12/01 07:52:24;;;;;;;4.03;3.63;;;;;;;3.38;81.17;101924.91;6335251;28;20192;-82
2020/12/01 07:55:35;;;;;;;6.87;3.80;;;;;;;3.74;81.70;101964.63;6339456;27;20545;-80
2020/12/01 07:58:39;;;;;;;7.03;3.43;;;;;;;3.40;81.81;101940.94;6344424;27;20225;-79
2020/12/01 08:01:45;;;;;;;4.70;3.40;;;;;;;3.66;81.93;101975.28;6331337;28;20231;-78
2020/12/01 08:05:01;;;;;;;3.93;3.60;;;;;;;3.60;82.39;101981.25;6321823;28;20203;-79
2020/12/01 08:08:07;;;;;;;3.53;3.40;;;;;;;3.63;81.68;101980.97;6348798;27;20221;-79
2020/12/01 08:11:20;;;;;;;3.77;3.40;;;;;;;3.49;82.06;101957.09;6337744;28;20280;-79
2020/12/01 08:14:25;;;;;;;3.80;3.40;;;;;;;3.80;82.04;101982.91;6344751;28;20182;-79
2020/12/01 08:17:34;;;;;;;3.97;3.70;;;;;;;3.84;82.54;101988.03;6343931;28;20231;-78
2020/12/01 08:20:38;;;;;;;3.97;3.77;;;;;;;3.60;82.53;101977.69;6328637;27;20203;-78
2020/12/01 08:23:43;;;;;;;3.87;3.67;;;;;;;3.68;83.31;101989.47;6329981;28;20200;-79
2020/12/01 08:26:59;;;;;;;4.60;4.23;;;;;;;3.64;82.77;101982.69;6340366;28;20568;-78
2020/12/01 08:30:08;;;;;;;6.03;5.47;;;;;;;3.80;81.83;101999.09;6343338;28;20224;-78
2020/12/01 08:33:36;;;;;;;3.93;3.63;;;;;;;3.68;83.21;102008.38;6329157;28;20205;-80
2020/12/01 08:37:10;;;;;;;3.57;3.47;;;;;;;3.63;83.42;102002.56;6324302;28;20199;-79
2020/12/01 08:40:22;;;;;;;4.17;3.40;;;;;;;3.51;83.67;102014.50;6353207;27;20322;-78
2020/12/01 08:43:33;;;;;;;4.40;4.00;;;;;;;3.44;83.11;101970.19;6345389;27;20201;-79
2020/12/01 08:46:42;;;;;;;4.83;4.43;;;;;;;3.57;82.87;101981.53;6327955;27;20676;-79
2020/12/01 08:49:52;;;;;;;13.40;4.37;;;;;;;3.73;83.11;102030.38;6326743;28;20248;-78
2020/12/01 08:53:08;;;;;;;3.70;3.50;;;;;;;3.87;82.22;102031.78;6330226;28;20277;-79
2020/12/01 08:56:26;;;;;;;5.60;3.80;;;;;;;3.78;83.17;102030.78;6321636;28;20239;-79
2020/12/01 08:59:38;;;;;;;4.50;3.93;;;;;;;3.74;83.15;102032.09;6321461;28;20226;-79
2020/12/01 09:02:47;;;;;;;3.80;3.50;;;;;;;3.44;82.67;101986.38;6346107;27;20613;-79
2020/12/01 09:05:52;;;;;;;5.23;4.30;;;;;;;3.73;83.42;102057.38;6328531;28;20208;-79
2020/12/01 09:08:59;;;;;;;4.30;3.97;;;;;;;3.69;83.09;102061.38;6339961;27;20216;-79
2020/12/01 09:12:18;;;;;;;4.20;4.00;;;;;;;3.78;82.74;102071.28;6345201;27;20195;-78
2020/12/01 09:15:36;;;;;;;4.40;3.93;;;;;;;3.73;82.81;102062.78;6311263;28;20648;-79
2020/12/01 09:18:56;;;;;;;4.10;3.80;;;;;;;3.68;83.20;102070.44;6321996;28;20200;-78
2020/12/01 09:22:08;;;;;;;5.70;5.10;;;;;;;3.69;83.65;102061.38;6323036;28;21419;-79
2020/12/01 09:25:20;;;;;;;7.07;6.10;;;;;;;3.83;83.78;102070.03;6332965;28;20215;-79
2020/12/01 09:28:25;;;;;;;7.47;5.60;;;;;;;3.89;83.19;102077.53;6326935;28;20626;-78
2020/12/01 09:31:37;;;;;;;5.53;5.13;;;;;;;3.58;84.04;102063.34;6321632;28;20202;-79
2020/12/01 09:34:42;;;;;;;4.33;4.13;;;;;;;3.83;83.32;102083.53;6310229;28;20334;-80
2020/12/01 09:37:46;;;;;;;3.93;3.80;;;;;;;3.88;82.78;102086.66;6328821;28;20239;-80
2020/12/01 09:40:51;;;;;;;4.20;4.00;;;;;;;3.97;82.23;102092.03;6331856;28;20668;-79
2020/12/01 09:43:59;;;;;;;4.97;4.67;;;;;;;3.85;82.75;102092.31;6330827;28;20682;-78
2020/12/01 09:47:06;;;;;;;4.87;4.57;;;;;;;3.88;82.12;102102.84;6334559;27;20338;-78
2020/12/01 09:50:13;;;;;;;4.17;3.90;;;;;;;3.90;83.12;102098.16;6311385;28;20232;-79
2020/12/01 09:53:39;;;;;;;4.27;3.97;;;;;;;4.07;82.75;102105.50;6335218;28;20261;-79
2020/12/01 09:56:48;;;;;;;4.70;4.30;;;;;;;3.75;82.88;102062.63;6337699;27;20540;-80
2020/12/01 10:00:17;;;;;;;5.57;4.17;;;;;;;4.06;82.30;102106.50;6318929;28;20267;-79
2020/12/01 10:10:56;;;;;;;4.00;3.80;;;;;;;4.27;81.63;102126.09;6214560;28;20229;-79
2020/12/01 10:14:07;;;;;;;5.20;4.33;;;;;;;4.24;81.63;102123.66;6235236;27;20311;-80
2020/12/01 10:17:37;;;;;;;4.57;4.27;;;;;;;4.17;81.71;102114.44;6323826;28;20196;-79
2020/12/01 10:35:09;;;;;;;4.80;4.33;;;;;;;4.36;81.76;102127.94;6292423;28;20545;-79
2020/12/01 10:38:24;;;;;;;4.77;4.17;;;;;;;4.39;81.26;102136.59;6317836;28;20498;-79
2020/12/01 10:41:28;;;;;;;5.17;4.67;;;;;;;4.43;81.52;102153.38;6317747;28;20192;-79
2020/12/01 10:44:33;;;;;;;4.80;4.40;;;;;;;4.46;81.48;102157.63;6322834;27;20646;-79
2020/12/01 10:47:37;;;;;;;4.73;4.40;;;;;;;4.33;81.64;102157.94;6335322;27;20201;-79
2020/12/01 10:50:41;;;;;;;9.03;5.03;;;;;;;4.14;81.62;102152.56;6334427;27;20241;-79
2020/12/01 10:53:44;;;;;;;10.07;5.40;;;;;;;4.27;82.00;102150.41;6322677;28;20196;-78
2020/12/01 10:56:47;;;;;;;5.50;5.00;;;;;;;4.11;82.36;102159.09;6358910;27;20342;-79
2020/12/01 10:59:51;;;;;;;7.97;5.33;;;;;;;4.02;82.33;102138.34;6345486;28;20241;-79
2020/12/01 11:02:55;;;;;;;7.07;5.10;;;;;;;4.31;82.10;102176.16;6362333;27;20222;-79
2020/12/01 11:05:59;;;;;;;6.77;5.33;;;;;;;4.43;81.45;102169.59;6324883;28;20480;-79
2020/12/01 11:09:02;;;;;;;8.43;5.80;;;;;;;4.44;81.80;102165.91;6343857;28;20825;-81
2020/12/01 11:12:07;;;;;;;10.60;5.73;;;;;;;4.27;82.17;102177.41;6324985;28;20589;-79
2020/12/01 11:15:12;;;;;;;8.43;5.80;;;;;;;4.47;82.25;102176.41;6321765;28;20529;-79
2020/12/01 11:18:17;;;;;;;9.17;5.43;;;;;;;4.32;82.09;102176.00;6321186;28;20637;-80
2020/12/01 11:21:21;;;;;;;5.37;4.97;;;;;;;4.48;82.25;102188.94;6321928;28;20284;-79
2020/12/01 11:24:24;;;;;;;7.63;5.10;;;;;;;4.56;81.72;102207.13;6330491;28;20229;-79
2020/12/01 11:27:27;;;;;;;4.63;4.40;;;;;;;4.48;83.04;102207.84;6326041;28;20266;-79
2020/12/01 11:30:32;;;;;;;5.97;5.23;;;;;;;4.57;82.69;102209.66;6362833;28;20245;-79
2020/12/01 11:33:35;;;;;;;6.10;4.87;;;;;;;4.55;83.43;102217.06;6333202;28;20194;-79
2020/12/01 11:36:40;;;;;;;5.53;5.03;;;;;;;4.29;83.38;102192.50;6322240;28;20200;-79
2020/12/01 11:39:45;;;;;;;7.33;5.13;;;;;;;4.54;84.12;102209.97;6327439;28;20314;-78
2020/12/01 11:42:48;;;;;;;6.97;5.03;;;;;;;4.49;83.63;102231.19;6310037;28;20549;-80
2020/12/01 11:45:54;;;;;;;7.53;6.77;;;;;;;4.55;84.07;102214.38;6319847;28;20218;-79
2020/12/01 11:49:01;;;;;;;6.13;5.47;;;;;;;4.75;83.82;102229.56;6344016;28;20309;-78
2020/12/01 11:52:09;;;;;;;4.90;4.53;;;;;;;4.81;83.48;102218.16;6307081;28;20200;-79
2020/12/01 11:55:15;;;;;;;5.57;5.07;;;;;;;4.71;83.76;102228.16;6347208;28;20195;-79
2020/12/01 11:58:18;;;;;;;5.20;4.80;;;;;;;4.68;84.11;102244.66;6336392;28;20562;-79
2020/12/01 12:01:22;;;;;;;5.00;4.67;;;;;;;4.55;84.02;102252.22;6327669;28;20231;-79
2020/12/01 12:04:26;;;;;;;5.60;5.00;;;;;;;4.48;84.25;102226.75;6331697;28;20330;-80
2020/12/01 12:07:29;;;;;;;5.27;4.97;;;;;;;4.61;83.86;102248.94;6353411;28;20221;-79
2020/12/01 12:10:32;;;;;;;6.63;4.37;;;;;;;4.75;82.69;102240.38;6331604;28;20214;-80
2020/12/01 12:13:36;;;;;;;4.30;4.10;;;;;;;4.64;82.60;102235.16;6330413;28;20397;-79
2020/12/01 12:16:40;;;;;;;4.87;4.57;;;;;;;4.41;83.40;102218.38;6321222;28;20198;-78
2020/12/01 12:19:44;;;;;;;5.13;4.73;;;;;;;4.73;82.97;102261.28;6331238;28;20193;-79
2020/12/01 12:22:47;;;;;;;4.87;4.37;;;;;;;4.72;83.88;102269.56;6326807;28;20187;-79
2020/12/01 12:25:51;;;;;;;4.70;4.40;;;;;;;4.53;84.24;102265.03;6313767;28;20282;-78
2020/12/01 12:28:54;;;;;;;4.70;4.40;;;;;;;4.59;84.75;102277.13;6337652;28;20187;-78
2020/12/01 12:31:58;;;;;;;5.07;4.67;;;;;;;4.55;84.92;102276.53;6329172;28;20298;-78
2020/12/01 12:35:03;;;;;;;4.70;4.30;;;;;;;4.36;83.50;102214.41;6342891;28;20201;-78
2020/12/01 12:38:09;;;;;;;4.73;4.23;;;;;;;4.71;83.74;102281.38;6321872;27;20199;-78
2020/12/01 12:41:14;;;;;;;4.67;4.47;;;;;;;4.54;84.75;102280.25;6304876;28;20215;-79
2020/12/01 12:44:17;;;;;;;4.97;4.57;;;;;;;4.59;84.41;102275.28;6324090;27;20285;-77
2020/12/01 12:47:22;;;;;;;4.97;4.63;;;;;;;4.62;84.29;102277.69;6347487;27;20190;-78
2020/12/01 12:50:25;;;;;;;4.30;4.10;;;;;;;4.64;84.33;102280.25;6330508;27;20695;-77
2020/12/01 12:53:29;;;;;;;4.53;4.30;;;;;;;4.67;84.27;102290.78;6320089;28;20199;-78
2020/12/01 12:56:32;;;;;;;4.47;4.27;;;;;;;4.61;83.85;102291.34;6322879;28;20942;-79
2020/12/01 12:59:35;;;;;;;5.23;4.73;;;;;;;4.65;84.31;102293.59;6320687;27;20227;-78
2020/12/01 13:02:40;;;;;;;4.97;4.60;;;;;;;4.56;84.74;102283.66;6332152;28;20197;-78
2020/12/01 13:05:43;;;;;;;4.80;4.40;;;;;;;4.68;85.10;102304.13;6349201;27;20284;-78
2020/12/01 13:08:46;;;;;;;4.77;4.40;;;;;;;4.72;84.33;102308.28;6343432;28;20197;-79
2020/12/01 13:11:51;;;;;;;5.80;4.40;;;;;;;4.62;84.11;102310.13;6324210;28;20669;-79
2020/12/01 13:14:54;;;;;;;4.53;4.30;;;;;;;4.20;85.06;102260.91;6300550;28;20259;-78
2020/12/01 13:17:58;;;;;;;4.60;4.27;;;;;;;4.52;84.96;102313.84;6360872;27;20634;-78
2020/12/01 13:21:01;;;;;;;4.83;4.60;;;;;;;4.52;85.82;102330.88;6322239;28;20199;-78
2020/12/01 13:24:05;;;;;;;4.97;4.57;;;;;;;4.62;85.67;102320.94;6318974;28;20212;-79
2020/12/01 13:27:08;;;;;;;8.87;5.30;;;;;;;4.48;86.04;102340.28;6320503;28;20192;-78
2020/12/01 13:30:17;;;;;;;5.20;4.80;;;;;;;4.52;85.48;102340.88;6332948;28;20650;-79
2020/12/01 13:33:27;;;;;;;7.70;5.43;;;;;;;4.49;86.24;102347.41;6327944;28;20205;-77
2020/12/01 13:36:30;;;;;;;11.97;5.80;;;;;;;4.30;86.49;102325.75;6343621;27;20251;-77
2020/12/01 13:39:35;;;;;;;10.70;6.40;;;;;;;4.47;86.06;102341.25;6318909;28;20675;-79
2020/12/01 13:42:39;;;;;;;11.03;7.37;;;;;;;4.45;85.47;102318.94;6357862;28;20249;-79
2020/12/01 13:45:42;;;;;;;10.00;5.33;;;;;;;4.26;86.77;102329.75;6351444;28;20658;-79
2020/12/01 13:48:47;;;;;;;7.07;5.50;;;;;;;4.45;86.19;102329.75;6327246;28;20240;-79
2020/12/01 13:51:52;;;;;;;12.07;5.57;;;;;;;4.61;85.37;102346.25;6323356;28;20293;-80
2020/12/01 13:54:55;;;;;;;6.40;5.00;;;;;;;4.49;86.07;102347.41;6349392;28;20193;-80
2020/12/01 13:57:58;;;;;;;6.17;4.30;;;;;;;4.44;86.15;102344.28;6341219;28;20191;-80
2020/12/01 14:01:02;;;;;;;5.77;5.17;;;;;;;4.56;85.50;102348.53;6350546;27;20331;-79
2020/12/01 14:04:07;;;;;;;5.47;4.67;;;;;;;4.47;86.15;102354.78;6329986;28;20217;-78
2020/12/01 14:07:15;;;;;;;5.67;5.20;;;;;;;4.45;86.34;102345.97;6338203;27;20426;-80
2020/12/01 14:10:20;;;;;;;5.97;5.37;;;;;;;4.40;86.33;102351.78;6339146;27;20647;-79
2020/12/01 14:13:23;;;;;;;5.43;4.93;;;;;;;4.56;85.80;102378.28;6323965;28;20429;-79
2020/12/01 14:16:26;;;;;;;4.90;4.60;;;;;;;4.56;86.04;102386.38;6325414;28;20226;-79
2020/12/01 14:19:31;;;;;;;5.10;4.80;;;;;;;4.42;86.13;102378.66;6334743;28;20188;-79
2020/12/01 14:22:34;;;;;;;8.00;5.03;;;;;;;4.39;86.12;102374.41;6326161;28;20196;-79
2020/12/01 14:25:38;;;;;;;4.03;3.73;;;;;;;4.44;85.72;102382.13;6324612;28;20247;-79
2020/12/01 14:28:41;;;;;;;5.37;4.70;;;;;;;4.43;85.60;102399.31;6315892;28;20588;-79
2020/12/01 14:31:46;;;;;;;5.60;4.53;;;;;;;4.38;85.68;102382.66;6317160;28;20225;-79
2020/12/01 14:34:49;;;;;;;5.30;4.80;;;;;;;4.49;85.48;102396.06;6328587;28;20752;-79
2020/12/01 14:37:54;;;;;;;6.03;4.43;;;;;;;4.57;85.68;102409.69;6336729;28;20288;-82
2020/12/01 14:40:57;;;;;;;7.23;4.73;;;;;;;4.36;85.37;102379.25;6340583;28;20201;-80
2020/12/01 14:44:16;;;;;;;4.87;4.60;;;;;;;4.61;85.15;102405.75;6311739;28;20202;-80
2020/12/01 14:47:39;;;;;;;4.93;4.60;;;;;;;4.26;86.01;102384.59;6318891;28;20251;-80
2020/12/01 14:51:11;;;;;;;7.80;4.63;;;;;;;4.47;86.38;102414.25;6340512;27;20803;-80
2020/12/01 14:54:18;;;;;;;4.60;4.23;;;;;;;4.24;86.37;102380.34;6339880;28;20195;-79
2020/12/01 14:57:49;;;;;;;4.17;3.93;;;;;;;4.50;86.09;102413.97;6329093;28;20199;-80
2020/12/01 15:01:03;;;;;;;5.13;4.63;;;;;;;4.30;86.04;102394.16;6340817;28;20670;-79
2020/12/01 15:04:42;;;;;;;4.93;4.53;;;;;;;4.50;86.31;102432.88;6351744;28;20215;-79
2020/12/01 15:08:07;;;;;;;4.87;4.47;;;;;;;4.45;85.88;102440.56;6357913;28;20185;-79